19:43
Airports
History
Links
Donate
Help keep this website running!
PayPal
Bitcoin
Information on this page is community maintained and may be outdated or inaccurate and is intended for reference only or PC simulator navigating!
Always use approved charts for navigating.
CYGQ
GERALDTON GREENSTONE REGIONAL
GERALDTON GREENSTONE REGIONAL (CYGQ)
Greenstone, Ontario, Canada
(U)
Lat/Lng:49° 46' 42.5" N / 86° 56' 21.51" W
49.778473 / -86.939307
Elevation:1144'ft 349mMSL
ID / ICAO:CYGQ
Runways:1
Longest:(08-26) 1,528.9m 5,016ft Asphalt
Distance To
Airport ID:
Airport Radio Frequencies
CTAF/UNICOM: 122.8
Nearby VORs <50NM
Nearby NDBs
METARUpdated 03-28-17 19:00 GMT
Altimeter: 30.22
Visibility: 15.0 statute miles
Wind: 10 knots (350°)
Temp: 1°c 34°f
Humidity: 55.0%

METAR: CYGQ 281900Z 35010KT 290V010 15SM BKN035 01/M07 A3022 RMK SC6 SLP256

(Powered by phpweather)
Runway 08 / 26
Dimensions:1528.9 x 30.5m 5016' x 100'ft
Surface:Asphalt
Edge Lights:Medium intensity
Runway 08 [A]Runway 26 [B]
Heading:072°TH 252°TH
Lat:
Lng:
49° 46' 35"N
86° 56' 58"W
49° 46' 50"N
86° 55' 45.01"W
TDZ:Yes, lighted
Google Map
Nearby Airports
(U) NAKINA 29.7 NM
CYQN NNE 21°
(U) MANITOUWADGE 68.2 NM
CYMG SE 134°
(U) MARATHON 75.6 NM
CYSP SSE 159°
(U) ARMSTRONG 94.7 NM
CYYW WNW 292°
(U) HORNEPAYNE MUNI 105.9 NM
CYHN ESE 112°
(C) Thunder Bay 145.2 NM
CYQT (WX) SW 227°
(U) HEARST RENE FONTAINE MUNI 145.3 NM
CYHF E 91°
VFR Chart
Flight Planning at SkyVector.com